createdAt,value
2023-05-12T00:01:54.653Z,11.65
2023-05-12T00:04:22.198Z,8.73
2023-05-12T00:06:49.683Z,10.90
2023-05-12T00:09:17.050Z,12.23
2023-05-12T00:11:44.550Z,9.63
2023-05-12T00:14:11.952Z,11.32
2023-05-12T00:16:40.825Z,9.32
2023-05-12T00:19:09.006Z,12.93
2023-05-12T00:21:36.463Z,14.50
2023-05-12T00:24:04.125Z,14.45
2023-05-12T00:26:31.882Z,14.07
2023-05-12T00:28:59.199Z,16.67
2023-05-12T00:31:26.752Z,13.07
2023-05-12T00:33:55.204Z,14.13
2023-05-12T00:36:23.116Z,15.00
2023-05-12T00:38:50.742Z,13.82
2023-05-12T00:41:18.469Z,11.73
2023-05-12T00:43:46.389Z,17.30
2023-05-12T00:46:14.727Z,27.42
2023-05-12T00:48:42.233Z,19.08
2023-05-12T00:51:10.808Z,17.33
2023-05-12T00:53:48.147Z,15.18
2023-05-12T00:56:21.849Z,16.73
2023-05-12T00:58:49.292Z,15.30
2023-05-12T01:01:18.849Z,17.83
2023-05-12T01:03:49.299Z,19.40
2023-05-12T01:06:28.977Z,21.77
2023-05-12T01:08:58.080Z,53.08
2023-05-12T01:11:25.547Z,40.97
2023-05-12T01:13:53.067Z,26.77
2023-05-12T01:16:26.334Z,20.08
2023-05-12T01:18:56.103Z,19.10
2023-05-12T01:21:23.890Z,18.75
2023-05-12T01:23:58.441Z,18.15
2023-05-12T01:28:58.645Z,19.48
2023-05-12T01:31:28.096Z,15.80
2023-05-12T01:33:56.199Z,19.70
2023-05-12T01:36:26.729Z,22.02
2023-05-12T01:38:55.716Z,22.27
2023-05-12T01:41:25.075Z,26.08
2023-05-12T01:43:52.767Z,22.77
2023-05-12T01:46:21.058Z,19.02
2023-05-12T01:48:48.706Z,31.88
2023-05-12T01:51:16.764Z,23.80
2023-05-12T01:53:44.262Z,26.90
2023-05-12T01:56:11.835Z,20.67
2023-05-12T01:58:39.450Z,26.17
2023-05-12T02:01:07.556Z,24.77
2023-05-12T02:03:35.103Z,31.30
2023-05-12T02:06:02.625Z,28.55
2023-05-12T02:08:30.383Z,29.45
2023-05-12T02:11:06.368Z,33.05
2023-05-12T02:13:34.700Z,31.75
2023-05-12T02:16:05.992Z,34.38
2023-05-12T02:18:36.926Z,31.75
2023-05-12T02:21:18.937Z,31.65
2023-05-12T02:23:48.103Z,36.95
2023-05-12T02:26:16.282Z,32.72
2023-05-12T02:28:51.314Z,32.13
2023-05-12T02:31:39.490Z,34.75
2023-05-12T02:34:27.383Z,28.75
2023-05-12T02:39:56.936Z,33.53
2023-05-12T02:42:25.230Z,35.55
2023-05-12T02:45:01.554Z,31.27
2023-05-12T02:47:33.407Z,32.75
2023-05-12T02:50:01.465Z,34.47
2023-05-12T02:52:29.141Z,39.42
2023-05-12T02:54:59.825Z,31.23
2023-05-12T02:57:38.574Z,29.73
2023-05-12T03:00:12.218Z,34.05
2023-05-12T03:02:41.717Z,29.30
2023-05-12T03:05:09.453Z,34.20
2023-05-12T03:07:37.702Z,32.00
2023-05-12T03:10:06.861Z,28.40
2023-05-12T03:12:34.438Z,31.35
2023-05-12T03:15:01.912Z,26.30
2023-05-12T03:17:29.782Z,30.77
2023-05-12T03:20:00.084Z,27.92
2023-05-12T03:22:27.549Z,31.38
2023-05-12T03:24:57.510Z,33.85
2023-05-12T03:27:25.081Z,33.92
2023-05-12T03:29:53.286Z,36.58
2023-05-12T03:32:20.939Z,40.35
2023-05-12T03:34:48.802Z,41.72
2023-05-12T03:37:22.095Z,37.10
2023-05-12T03:40:00.714Z,37.17
2023-05-12T03:42:38.220Z,33.88
2023-05-12T03:45:07.101Z,40.58
2023-05-12T03:47:37.432Z,41.40
2023-05-12T03:50:05.730Z,36.90
2023-05-12T03:52:33.571Z,38.58
2023-05-12T03:55:09.370Z,48.25
2023-05-12T03:57:37.860Z,43.67
2023-05-12T04:00:20.749Z,43.33
2023-05-12T04:02:50.986Z,41.25
2023-05-12T04:05:28.271Z,44.60
2023-05-12T04:07:57.271Z,43.75
2023-05-12T04:10:24.974Z,36.85
2023-05-12T04:13:03.897Z,37.35
2023-05-12T04:15:35.430Z,33.03
2023-05-12T04:18:04.200Z,38.10
2023-05-12T04:20:35.817Z,32.75
2023-05-12T04:23:03.437Z,32.50
2023-05-12T04:25:42.835Z,34.90
2023-05-12T04:28:13.171Z,43.25
2023-05-12T04:30:42.530Z,33.05
2023-05-12T04:33:10.752Z,36.60
2023-05-12T04:35:39.062Z,33.08
2023-05-12T04:38:12.644Z,34.30
2023-05-12T04:40:46.793Z,36.75
2023-05-12T04:45:45.667Z,31.83
2023-05-12T04:48:13.125Z,40.72
2023-05-12T04:50:42.590Z,31.55
2023-05-12T04:53:11.333Z,34.35
2023-05-12T04:55:47.391Z,32.45
2023-05-12T04:58:17.132Z,33.67
2023-05-12T05:00:44.817Z,30.58
2023-05-12T05:03:14.297Z,30.42
2023-05-12T05:06:07.525Z,28.67
2023-05-12T05:08:42.629Z,26.10
2023-05-12T05:11:16.212Z,28.60
2023-05-12T05:13:59.044Z,28.47
2023-05-12T05:16:48.575Z,33.70
2023-05-12T05:19:40.344Z,28.17
2023-05-12T05:22:16.234Z,24.98
2023-05-12T05:24:47.088Z,29.65
2023-05-12T05:27:14.493Z,25.70
2023-05-12T05:29:42.171Z,27.40
2023-05-12T05:32:09.756Z,28.88
2023-05-12T05:34:39.767Z,33.10
2023-05-12T05:37:07.206Z,41.80
2023-05-12T05:39:34.649Z,27.40
2023-05-12T05:42:04.180Z,32.38
2023-05-12T05:44:45.370Z,37.17
2023-05-12T05:47:15.199Z,28.30
2023-05-12T05:49:45.038Z,33.17
2023-05-12T05:52:13.587Z,26.45
2023-05-12T05:54:41.440Z,30.73
2023-05-12T05:57:32.497Z,27.75
2023-05-12T06:00:10.048Z,29.08
2023-05-12T06:02:48.761Z,28.38
2023-05-12T06:05:27.225Z,27.08
2023-05-12T06:08:30.445Z,25.80
2023-05-12T06:11:04.199Z,23.95
2023-05-12T06:20:39.136Z,27.35
2023-05-12T06:26:23.308Z,24.20
2023-05-12T06:29:12.437Z,23.00
2023-05-12T06:31:42.510Z,26.65
2023-05-12T06:34:10.288Z,24.50
2023-05-12T06:37:17.522Z,19.73
2023-05-12T06:39:48.196Z,25.85
2023-05-12T06:42:35.825Z,29.98
2023-05-12T06:45:45.796Z,19.55
2023-05-12T06:48:35.904Z,18.20
2023-05-12T06:51:04.286Z,24.40
2023-05-12T06:57:05.350Z,21.90
2023-05-12T06:59:46.670Z,18.15
2023-05-12T07:02:29.435Z,15.30
2023-05-12T07:05:05.469Z,24.38
2023-05-12T07:07:32.790Z,14.38
2023-05-12T07:10:30.063Z,18.35
2023-05-12T07:13:06.909Z,16.05
2023-05-12T07:15:40.693Z,22.83
2023-05-12T07:18:08.398Z,24.48
2023-05-12T07:20:38.175Z,13.82
2023-05-12T07:23:09.440Z,20.60
2023-05-12T07:25:37.905Z,17.33
2023-05-12T07:28:07.845Z,19.00
2023-05-12T07:30:42.121Z,10.88
2023-05-12T07:33:24.132Z,18.52
2023-05-12T07:35:54.668Z,11.77
2023-05-12T07:38:23.054Z,21.92
2023-05-12T07:40:56.242Z,8.77
2023-05-12T07:43:46.853Z,14.88
2023-05-12T07:46:15.221Z,9.10
2023-05-12T07:48:52.324Z,9.07
2023-05-12T07:51:23.111Z,9.30
2023-05-12T07:53:55.311Z,9.20
2023-05-12T07:56:22.764Z,9.57
2023-05-12T07:58:51.653Z,9.75
2023-05-12T08:01:19.624Z,7.65
2023-05-12T08:03:47.382Z,14.07
2023-05-12T08:06:14.909Z,10.82
2023-05-12T08:08:48.832Z,13.73
2023-05-12T08:11:16.504Z,13.73
2023-05-12T08:13:58.145Z,8.82
2023-05-12T08:16:50.275Z,4.68
2023-05-12T08:19:18.057Z,10.45
2023-05-12T08:21:47.184Z,8.52
2023-05-12T08:24:16.194Z,10.65
2023-05-12T08:26:46.642Z,17.25
2023-05-12T08:29:16.093Z,9.43
2023-05-12T08:31:43.754Z,7.95
2023-05-12T08:34:11.828Z,11.45
2023-05-12T08:36:52.661Z,17.45
2023-05-12T08:39:20.895Z,11.13
2023-05-12T08:42:10.928Z,7.68
2023-05-12T08:44:46.731Z,9.48
2023-05-12T08:47:15.629Z,8.35
2023-05-12T08:49:44.109Z,12.65
2023-05-12T08:52:18.952Z,7.95
2023-05-12T08:54:55.962Z,8.85
2023-05-12T08:57:25.690Z,7.38
2023-05-12T08:59:56.245Z,9.95
2023-05-12T09:02:30.907Z,5.47
2023-05-12T09:05:07.967Z,10.65
2023-05-12T09:07:47.303Z,5.30
2023-05-12T09:10:34.636Z,10.52
2023-05-12T09:13:28.946Z,9.35
2023-05-12T09:15:59.911Z,9.13
2023-05-12T09:18:44.334Z,9.90
2023-05-12T09:21:12.819Z,11.63
2023-05-12T09:23:40.947Z,14.65
2023-05-12T09:26:10.484Z,4.40
2023-05-12T09:28:38.787Z,5.60
2023-05-12T09:31:19.335Z,6.70
2023-05-12T09:33:55.772Z,8.13
2023-05-12T09:36:25.985Z,6.63
2023-05-12T09:39:05.365Z,5.25
2023-05-12T09:41:37.637Z,8.65
2023-05-12T09:44:08.612Z,9.02
2023-05-12T09:46:41.022Z,10.15
2023-05-12T09:49:09.521Z,8.25
2023-05-12T09:51:44.921Z,4.78
2023-05-12T09:54:24.183Z,7.53
2023-05-12T09:56:53.029Z,8.82
2023-05-12T09:59:28.876Z,4.97
2023-05-12T10:02:02.920Z,6.43
2023-05-12T10:04:45.529Z,12.18
2023-05-12T10:07:15.430Z,4.78
2023-05-12T10:09:45.514Z,12.27
2023-05-12T10:12:14.964Z,11.10
2023-05-12T10:14:44.249Z,10.40
2023-05-12T10:17:19.668Z,6.70
2023-05-12T10:19:54.472Z,10.63
2023-05-12T10:22:22.762Z,7.28
2023-05-12T10:24:51.752Z,27.45
2023-05-12T10:27:22.817Z,16.65
2023-05-12T10:29:53.660Z,5.82
2023-05-12T10:32:24.231Z,6.43
2023-05-12T10:34:53.854Z,5.50
2023-05-12T10:37:23.501Z,6.65
2023-05-12T10:39:52.517Z,8.02
2023-05-12T10:42:34.135Z,6.57
2023-05-12T10:45:04.824Z,6.43
2023-05-12T10:47:52.083Z,9.23
2023-05-12T10:53:50.058Z,9.75
2023-05-12T10:56:45.710Z,11.85
2023-05-12T11:02:36.018Z,8.00
2023-05-12T11:05:13.191Z,6.00
2023-05-12T11:10:15.535Z,11.65
2023-05-12T11:12:50.886Z,5.65
2023-05-12T11:15:21.896Z,7.40
2023-05-12T11:17:50.272Z,10.75
2023-05-12T11:20:28.062Z,6.97
2023-05-12T11:22:58.185Z,10.45
2023-05-12T11:25:30.897Z,7.00
2023-05-12T11:27:59.734Z,8.93
2023-05-12T11:30:34.910Z,11.35
2023-05-12T11:33:11.422Z,10.05
2023-05-12T11:35:39.023Z,6.03
2023-05-12T11:38:18.367Z,7.03
2023-05-12T11:40:47.696Z,6.45
2023-05-12T11:43:38.574Z,13.35
2023-05-12T11:46:12.186Z,11.43
2023-05-12T11:48:40.010Z,5.85
2023-05-12T11:51:12.379Z,14.50
2023-05-12T11:57:14.455Z,5.22
2023-05-12T11:59:45.815Z,7.93
2023-05-12T12:02:28.271Z,11.90
2023-05-12T12:05:02.147Z,7.18
2023-05-12T12:07:57.129Z,5.85
2023-05-12T12:10:29.875Z,8.20
2023-05-12T12:13:09.370Z,4.40
2023-05-12T12:15:44.325Z,3.25
2023-05-12T12:18:12.542Z,8.77
2023-05-12T12:20:52.208Z,3.45
2023-05-12T12:23:27.132Z,4.03
2023-05-12T12:26:00.871Z,6.47
2023-05-12T12:28:43.972Z,5.10
2023-05-12T12:31:12.045Z,4.63
2023-05-12T12:33:45.501Z,6.20
2023-05-12T12:36:22.546Z,4.38
2023-05-12T12:39:05.683Z,8.27
2023-05-12T12:41:36.942Z,7.35
2023-05-12T12:44:05.690Z,6.90
2023-05-12T12:46:57.925Z,8.40
2023-05-12T12:49:49.691Z,7.85
2023-05-12T12:52:58.686Z,4.25
2023-05-12T12:55:26.835Z,8.05
2023-05-12T13:01:16.967Z,8.10
2023-05-12T13:07:04.292Z,11.52
2023-05-12T13:09:32.326Z,7.50
2023-05-12T13:12:08.396Z,8.27
2023-05-12T13:14:39.022Z,12.45
2023-05-12T13:17:08.283Z,9.10
2023-05-12T13:19:47.367Z,9.68
2023-05-12T13:22:15.066Z,10.75
2023-05-12T13:24:42.779Z,5.78
2023-05-12T13:27:10.619Z,5.57
2023-05-12T13:29:40.723Z,12.20
2023-05-12T13:32:54.797Z,8.98
2023-05-12T13:36:21.813Z,10.88
2023-05-12T13:38:52.254Z,9.93
2023-05-12T13:41:20.033Z,11.38
2023-05-12T13:43:50.422Z,18.45
2023-05-12T13:46:26.051Z,16.05
2023-05-12T13:49:02.268Z,13.25
2023-05-12T13:58:05.140Z,12.43
2023-05-12T14:00:42.624Z,11.25
2023-05-12T14:03:20.143Z,18.20
2023-05-12T14:06:27.191Z,13.73
2023-05-12T14:08:54.972Z,16.77
2023-05-12T14:11:26.433Z,17.45
2023-05-12T14:13:54.081Z,15.60
2023-05-12T14:16:21.810Z,14.65
2023-05-12T14:18:50.867Z,19.30
2023-05-12T14:21:18.301Z,20.95
2023-05-12T14:23:46.169Z,25.23
2023-05-12T14:26:17.773Z,23.42
2023-05-12T14:28:45.835Z,21.20
2023-05-12T14:31:32.727Z,27.92
2023-05-12T14:34:00.682Z,28.85
2023-05-12T14:36:29.373Z,24.17
2023-05-12T14:38:58.170Z,22.00
2023-05-12T14:41:25.790Z,26.88
2023-05-12T14:43:56.466Z,28.75
2023-05-12T14:46:26.048Z,25.58
2023-05-12T14:48:53.862Z,27.60
2023-05-12T14:51:23.757Z,22.35
2023-05-12T14:59:54.352Z,20.48
2023-05-12T15:02:27.586Z,22.58
2023-05-12T15:06:04.589Z,21.27
2023-05-12T15:08:32.946Z,26.42
2023-05-12T15:13:48.653Z,27.80
2023-05-12T15:17:18.012Z,35.90
2023-05-12T15:20:03.029Z,28.50
2023-05-12T15:22:45.291Z,38.97
2023-05-12T15:28:35.166Z,21.42
2023-05-12T15:31:19.165Z,31.42
2023-05-12T15:33:48.030Z,27.48
2023-05-12T15:39:37.029Z,30.25
2023-05-12T15:42:33.277Z,26.85
2023-05-12T15:45:04.732Z,18.17
2023-05-12T15:56:53.214Z,35.97
2023-05-12T15:59:54.060Z,29.63
2023-05-12T16:02:45.239Z,34.17
2023-05-12T16:05:38.885Z,26.98
2023-05-12T16:08:12.056Z,28.65
2023-05-12T16:13:29.463Z,27.88
2023-05-12T16:15:58.022Z,27.33
2023-05-12T16:18:38.180Z,31.58
2023-05-12T16:21:39.186Z,24.73
2023-05-12T16:27:10.259Z,22.63
2023-05-12T16:29:39.341Z,29.88
2023-05-12T16:40:29.251Z,30.45
2023-05-12T16:40:54.787Z,31.20
2023-05-12T16:43:38.833Z,22.60
2023-05-12T16:46:11.549Z,28.35
2023-05-12T16:48:39.458Z,28.20
2023-05-12T16:51:11.225Z,29.75
2023-05-12T16:54:03.906Z,26.65
2023-05-12T16:56:36.373Z,29.15
2023-05-12T16:59:04.408Z,32.15
2023-05-12T17:01:34.152Z,34.67
2023-05-12T17:04:02.597Z,29.85
2023-05-12T17:07:11.741Z,31.85
2023-05-12T17:09:31.470Z,37.67
2023-05-12T17:11:59.404Z,37.00
2023-05-12T17:14:37.359Z,33.28
2023-05-12T17:17:07.931Z,28.55
2023-05-12T17:19:42.157Z,36.78
2023-05-12T17:22:43.224Z,32.33
2023-05-12T17:25:19.250Z,31.80
2023-05-12T17:31:01.571Z,36.65
2023-05-12T17:33:47.377Z,29.15
2023-05-12T17:36:27.143Z,31.90
2023-05-12T17:38:57.872Z,35.88
2023-05-12T17:41:28.370Z,41.83
2023-05-12T17:46:56.777Z,37.13
2023-05-12T17:50:00.589Z,29.85
2023-05-12T17:52:46.646Z,36.97
2023-05-12T17:55:17.668Z,26.08
2023-05-12T17:57:45.871Z,34.45
2023-05-12T18:00:24.753Z,39.55
2023-05-12T18:02:52.433Z,33.45
2023-05-12T18:05:20.140Z,37.42
2023-05-12T18:07:47.807Z,40.10
2023-05-12T18:10:15.169Z,39.63
2023-05-12T18:12:42.615Z,35.25
2023-05-12T18:15:11.099Z,41.55
2023-05-12T18:17:38.546Z,41.38
2023-05-12T18:20:06.940Z,32.80
2023-05-12T18:22:35.857Z,38.50
2023-05-12T18:25:03.153Z,38.70
2023-05-12T18:27:30.603Z,46.60
2023-05-12T18:29:58.694Z,40.17
2023-05-12T18:32:33.745Z,36.53
2023-05-12T18:35:06.096Z,36.28
2023-05-12T18:37:36.581Z,35.67
2023-05-12T18:40:28.386Z,38.25
2023-05-12T18:42:56.259Z,40.15
2023-05-12T18:45:25.595Z,39.85
2023-05-12T18:48:00.744Z,35.42
2023-05-12T18:50:41.623Z,32.78
2023-05-12T18:53:11.954Z,46.67
2023-05-12T18:55:39.602Z,37.90
2023-05-12T18:58:11.475Z,39.28
2023-05-12T19:00:39.139Z,40.97
2023-05-12T19:03:07.035Z,37.88
2023-05-12T19:05:34.565Z,43.85
2023-05-12T19:08:06.654Z,38.05
2023-05-12T19:10:55.340Z,34.90
2023-05-12T19:13:24.326Z,38.88
2023-05-12T19:16:31.407Z,45.15
2023-05-12T19:19:03.572Z,38.50
2023-05-12T19:21:40.561Z,48.85
2023-05-12T19:24:18.400Z,37.92
2023-05-12T19:26:46.194Z,33.20
2023-05-12T19:29:17.901Z,40.05
2023-05-12T19:31:50.136Z,37.75
2023-05-12T19:34:44.605Z,39.25
2023-05-12T19:37:20.235Z,33.72
2023-05-12T19:42:40.025Z,35.28
2023-05-12T19:45:11.007Z,46.47
2023-05-12T19:47:38.488Z,40.78
2023-05-12T19:50:06.471Z,38.05
2023-05-12T19:52:34.433Z,31.13
2023-05-12T19:55:08.719Z,39.03
2023-05-12T19:57:37.767Z,33.75
2023-05-12T20:00:06.036Z,37.42
2023-05-12T20:02:46.600Z,31.92
2023-05-12T20:05:14.399Z,35.80
2023-05-12T20:07:44.418Z,33.55
2023-05-12T20:10:13.027Z,32.10
2023-05-12T20:12:40.348Z,32.70
2023-05-12T20:15:08.826Z,35.70
2023-05-12T20:17:36.480Z,31.67
2023-05-12T20:20:04.315Z,40.47
2023-05-12T20:22:31.828Z,46.30
2023-05-12T20:25:04.332Z,40.08
2023-05-12T20:27:32.808Z,35.70
2023-05-12T20:30:00.357Z,27.67
2023-05-12T20:32:27.772Z,34.80
2023-05-12T20:34:55.359Z,33.25
2023-05-12T20:37:25.446Z,29.85
2023-05-12T20:39:54.265Z,32.25
2023-05-12T20:42:22.068Z,42.58
2023-05-12T20:44:50.004Z,36.17
2023-05-12T20:47:17.316Z,40.78
2023-05-12T20:49:46.257Z,28.67
2023-05-12T20:52:13.752Z,45.58
2023-05-12T20:54:41.351Z,38.75
2023-05-12T20:57:10.226Z,31.08
2023-05-12T20:59:40.879Z,34.40
2023-05-12T21:02:08.325Z,38.78
2023-05-12T21:04:36.179Z,39.65
2023-05-12T21:07:03.977Z,39.28
2023-05-12T21:09:34.623Z,31.65
2023-05-12T21:12:02.056Z,38.90
2023-05-12T21:14:29.584Z,36.88
2023-05-12T21:16:57.129Z,36.85
2023-05-12T21:19:24.532Z,49.15
2023-05-12T21:21:51.974Z,36.25
2023-05-12T21:24:19.436Z,33.42
2023-05-12T21:26:48.385Z,38.72
2023-05-12T21:29:16.347Z,43.10
2023-05-12T21:31:43.917Z,44.03
2023-05-12T21:34:11.562Z,52.72
2023-05-12T21:36:40.309Z,33.78
2023-05-12T21:39:08.001Z,47.38
2023-05-12T21:41:41.392Z,51.75
2023-05-12T21:44:11.107Z,32.95
2023-05-12T21:46:38.966Z,49.83
2023-05-12T21:49:06.499Z,44.97
2023-05-12T21:51:34.052Z,46.15
2023-05-12T21:54:01.632Z,40.33
2023-05-12T21:56:29.996Z,43.38
2023-05-12T21:58:57.450Z,39.95
2023-05-12T22:01:24.934Z,38.47
2023-05-12T22:03:53.471Z,38.83
2023-05-12T22:06:21.295Z,52.88
2023-05-12T22:08:48.811Z,45.38
2023-05-12T22:11:21.305Z,27.13
2023-05-12T22:13:51.432Z,43.83
2023-05-12T22:16:31.091Z,41.60
2023-05-12T22:19:03.473Z,37.13
2023-05-12T22:21:36.237Z,35.60
2023-05-12T22:24:03.986Z,31.77
2023-05-12T22:26:34.795Z,44.75
2023-05-12T22:29:02.619Z,38.42
2023-05-12T22:31:30.655Z,34.28
2023-05-12T22:33:58.477Z,32.72
2023-05-12T22:36:27.899Z,34.05
2023-05-12T22:39:00.173Z,26.13
2023-05-12T22:41:27.675Z,28.83
2023-05-12T22:43:56.909Z,35.85
2023-05-12T22:46:44.505Z,33.15
2023-05-12T22:49:12.026Z,27.90
2023-05-12T22:51:41.612Z,34.17
2023-05-12T22:54:09.144Z,40.10
2023-05-12T22:56:36.528Z,36.97
2023-05-12T22:59:04.102Z,32.38
2023-05-12T23:01:31.729Z,30.10
2023-05-12T23:04:05.026Z,27.80
2023-05-12T23:06:33.014Z,41.72
2023-05-12T23:09:00.915Z,36.20
2023-05-12T23:11:28.888Z,36.63
2023-05-12T23:13:56.357Z,29.92
2023-05-12T23:16:23.906Z,30.60
2023-05-12T23:18:51.529Z,28.75
2023-05-12T23:21:18.905Z,33.03
2023-05-12T23:23:46.324Z,43.25
2023-05-12T23:26:13.634Z,38.95
2023-05-12T23:28:40.988Z,29.65
2023-05-12T23:31:08.899Z,29.85
2023-05-12T23:33:44.633Z,43.50
2023-05-12T23:36:15.204Z,34.00
2023-05-12T23:38:44.121Z,42.70
2023-05-12T23:41:14.060Z,37.40
2023-05-12T23:43:43.457Z,26.98
2023-05-12T23:46:21.148Z,38.65
2023-05-12T23:48:48.812Z,33.75
2023-05-12T23:51:16.124Z,27.63
2023-05-12T23:53:43.660Z,36.95
2023-05-12T23:56:13.280Z,34.80
2023-05-12T23:58:41.177Z,31.67
